Alsen, North Dakota
Current Conditions -  °F | °C
As of 1:55 AM on Thursday 29 Jan 2015 (Local Time) from KD55 Reporting Station
NA  
Wind Chill:   Ceiling: NA
Heat Index: 16°   Visibility: 10mi
Dew Point: 14°   Wind: 16mph
Humidity: 93%   Direction: 340°NNW
Pressure: 30.2"   Gusts: 22mph
Location:  48.63°N, 98.7°W
Report Text: KD55 290755Z AUTO 34014G19KT 10SM M09/M10 A3020 RMK AO2
Loading
Personal Weather Stations






























Interactive Weather Map New forecast layout! Learn more

10-Day Weather Forecast

Advertisements
Track Severe Weather on mobile